createdAt,value
2019-01-21T00:01:29.355Z,102374.23
2019-01-21T00:03:58.901Z,102369.99
2019-01-21T00:06:28.430Z,102373.34
2019-01-21T00:08:57.845Z,102370.29
2019-01-21T00:11:27.252Z,102370.29
2019-01-21T00:13:56.812Z,102374.97
2019-01-21T00:16:26.255Z,102378.69
2019-01-21T00:18:55.873Z,102376.55
2019-01-21T00:21:25.365Z,102378.75
2019-01-21T00:23:54.812Z,102376.66
2019-01-21T00:26:24.235Z,102370.95
2019-01-21T00:28:54.065Z,102370.09
2019-01-21T00:31:23.811Z,102359.52
2019-01-21T00:33:53.814Z,102363.86
2019-01-21T00:36:23.941Z,102361.17
2019-01-21T00:38:53.870Z,102355.55
2019-01-21T00:41:23.887Z,102359.97
2019-01-21T00:43:53.988Z,102352.53
2019-01-21T00:46:23.942Z,102352.58
2019-01-21T00:48:53.814Z,102350.81
2019-01-21T00:51:23.954Z,102349.68
2019-01-21T00:53:54.083Z,102352.31
2019-01-21T00:56:24.009Z,102354.12
2019-01-21T00:58:54.131Z,102351.91
2019-01-21T01:01:24.045Z,102364.60
2019-01-21T01:03:54.021Z,102371.05
2019-01-21T01:06:24.181Z,102367.70
2019-01-21T01:08:54.003Z,102367.01
2019-01-21T01:11:24.203Z,102367.31
2019-01-21T01:13:54.319Z,102357.62
2019-01-21T01:16:24.073Z,102361.96
2019-01-21T01:18:54.090Z,102357.20
2019-01-21T01:21:24.168Z,102359.45
2019-01-21T01:23:54.568Z,102361.13
2019-01-21T01:26:24.151Z,102360.75
2019-01-21T01:28:54.208Z,102369.94
2019-01-21T01:31:24.208Z,102366.70
2019-01-21T01:33:54.111Z,102371.61
2019-01-21T01:36:24.331Z,102366.78
2019-01-21T01:38:54.092Z,102371.71
2019-01-21T01:41:24.154Z,102370.09
2019-01-21T01:43:54.238Z,102367.09
2019-01-21T01:46:24.440Z,102359.30
2019-01-21T01:48:54.110Z,102351.69
2019-01-21T01:51:24.318Z,102352.98
2019-01-21T01:53:54.096Z,102345.55
2019-01-21T01:56:24.183Z,102354.23
2019-01-21T01:58:54.334Z,102352.91
2019-01-21T02:01:24.236Z,102349.41
2019-01-21T02:03:54.162Z,102347.33
2019-01-21T02:06:24.250Z,102360.69
2019-01-21T02:08:54.361Z,102349.89
2019-01-21T02:11:24.350Z,102342.86
2019-01-21T02:13:54.422Z,102344.23
2019-01-21T02:16:24.299Z,102339.42
2019-01-21T02:18:54.161Z,102333.34
2019-01-21T02:21:26.091Z,102333.83
2019-01-21T02:24:01.832Z,102342.36
2019-01-21T02:26:31.433Z,102340.78
2019-01-21T02:29:05.022Z,102332.45
2019-01-21T02:32:11.170Z,102322.50
2019-01-21T02:35:30.604Z,102318.47
2019-01-21T02:38:42.629Z,102316.69
2019-01-21T02:41:37.010Z,102325.34
2019-01-21T02:44:52.658Z,102325.16
2019-01-21T02:47:47.787Z,102318.82
2019-01-21T02:50:47.847Z,102312.88
2019-01-21T02:53:42.753Z,102306.45
2019-01-21T02:56:41.819Z,102304.71
2019-01-21T02:59:48.205Z,102305.95
2019-01-21T03:02:57.020Z,102286.11
2019-01-21T03:05:58.345Z,102289.62
2019-01-21T03:09:08.786Z,102296.84
2019-01-21T03:12:08.676Z,102296.49
2019-01-21T03:15:25.164Z,102291.02
2019-01-21T03:18:40.206Z,102296.16
2019-01-21T03:21:54.854Z,102294.32
2019-01-21T03:25:01.303Z,102288.20
2019-01-21T03:28:10.843Z,102282.47
2019-01-21T03:31:29.839Z,102286.80
2019-01-21T03:34:26.096Z,102281.58
2019-01-21T03:37:34.999Z,102272.34
2019-01-21T03:40:27.153Z,102267.61
2019-01-21T03:43:29.099Z,102261.48
2019-01-21T03:46:28.709Z,102267.12
2019-01-21T03:49:08.052Z,102268.48
2019-01-21T03:52:21.562Z,102281.20
2019-01-21T03:55:00.098Z,102277.43
2019-01-21T03:58:14.380Z,102287.73
2019-01-21T04:00:53.216Z,102279.46
2019-01-21T04:04:05.644Z,102279.28
2019-01-21T04:07:02.515Z,102287.64
2019-01-21T04:10:15.670Z,102281.84
2019-01-21T04:13:14.788Z,102280.86
2019-01-21T04:16:23.847Z,102278.33
2019-01-21T04:19:33.317Z,102270.83
2019-01-21T04:22:31.670Z,102264.25
2019-01-21T04:25:36.713Z,102250.77
2019-01-21T04:28:40.772Z,102250.30
2019-01-21T04:31:38.643Z,102239.85
2019-01-21T04:34:44.404Z,102237.31
2019-01-21T04:37:43.154Z,102227.98
2019-01-21T04:41:14.874Z,102227.95
2019-01-21T04:44:37.059Z,102217.34
2019-01-21T04:47:31.889Z,102214.70
2019-01-21T04:50:45.699Z,102204.71
2019-01-21T04:54:03.393Z,102207.03
2019-01-21T04:57:32.057Z,102211.76
2019-01-21T05:00:32.405Z,102206.86
2019-01-21T05:03:55.775Z,102206.65
2019-01-21T05:06:55.815Z,102205.36
2019-01-21T05:10:04.509Z,102202.45
2019-01-21T05:13:13.434Z,102200.22
2019-01-21T05:16:18.854Z,102198.47
2019-01-21T05:19:19.207Z,102200.66
2019-01-21T05:22:33.172Z,102194.95
2019-01-21T05:25:30.446Z,102194.48
2019-01-21T05:28:35.218Z,102195.80
2019-01-21T05:31:40.585Z,102191.28
2019-01-21T05:34:51.028Z,102186.98
2019-01-21T05:38:07.778Z,102184.84
2019-01-21T05:41:19.064Z,102193.36
2019-01-21T05:44:15.071Z,102182.75
2019-01-21T05:47:17.627Z,102191.48
2019-01-21T05:50:34.073Z,102192.84
2019-01-21T05:53:46.898Z,102198.21
2019-01-21T05:56:57.051Z,102196.99
2019-01-21T06:00:02.941Z,102196.35
2019-01-21T06:03:16.595Z,102194.09
2019-01-21T06:06:26.432Z,102206.28
2019-01-21T06:09:26.802Z,102214.58
2019-01-21T06:12:40.052Z,102211.00
2019-01-21T06:15:37.404Z,102213.15
2019-01-21T06:18:57.706Z,102211.84
2019-01-21T06:22:02.396Z,102214.52
2019-01-21T06:25:21.963Z,102213.66
2019-01-21T06:28:32.260Z,102215.81
2019-01-21T06:31:39.116Z,102216.95
2019-01-21T06:34:38.285Z,102217.82
2019-01-21T06:37:33.837Z,102223.44
2019-01-21T06:40:42.289Z,102217.50
2019-01-21T06:44:14.300Z,102208.86
2019-01-21T06:47:11.717Z,102197.56
2019-01-21T06:50:18.279Z,102206.61
2019-01-21T06:53:26.956Z,102203.67
2019-01-21T06:56:24.870Z,102221.05
2019-01-21T06:59:25.950Z,102229.94
2019-01-21T07:02:45.428Z,102221.41
2019-01-21T07:05:36.323Z,102213.19
2019-01-21T07:08:32.137Z,102214.86
2019-01-21T07:11:22.097Z,102219.21
2019-01-21T07:14:14.871Z,102213.58
2019-01-21T07:17:06.207Z,102207.69
2019-01-21T07:20:19.520Z,102217.82
2019-01-21T07:23:15.423Z,102224.87
2019-01-21T07:26:23.247Z,102219.81
2019-01-21T07:29:25.462Z,102214.38
2019-01-21T07:32:39.508Z,102210.75
2019-01-21T07:35:50.035Z,102202.02
2019-01-21T07:39:04.601Z,102200.64
2019-01-21T07:41:43.899Z,102197.91
2019-01-21T07:45:05.351Z,102200.63
2019-01-21T07:48:11.934Z,102198.11
2019-01-21T07:51:34.709Z,102200.86
2019-01-21T07:54:48.115Z,102199.13
2019-01-21T07:57:52.914Z,102187.66
2019-01-21T08:01:07.505Z,102185.42
2019-01-21T08:04:36.270Z,102176.20
2019-01-21T08:07:24.570Z,102182.86
2019-01-21T08:10:33.512Z,102168.56
2019-01-21T08:13:34.624Z,102167.76
2019-01-21T08:16:46.923Z,102172.25
2019-01-21T08:20:02.131Z,102176.33
2019-01-21T08:23:30.826Z,102176.91
2019-01-21T08:26:31.593Z,102179.06
2019-01-21T08:29:40.650Z,102178.64
2019-01-21T08:32:59.983Z,102181.72
2019-01-21T08:36:02.283Z,102171.88
2019-01-21T08:38:58.792Z,102178.46
2019-01-21T08:42:10.882Z,102169.63
2019-01-21T08:45:33.788Z,102161.77
2019-01-21T08:48:54.262Z,102163.22
2019-01-21T08:52:00.107Z,102168.63
2019-01-21T08:54:53.359Z,102167.75
2019-01-21T08:58:07.407Z,102157.75
2019-01-21T09:01:06.668Z,102162.16
2019-01-21T09:04:35.256Z,102162.50
2019-01-21T09:07:32.587Z,102167.32
2019-01-21T09:10:23.310Z,102165.55
2019-01-21T09:13:52.216Z,102167.80
2019-01-21T09:16:44.932Z,102161.31
2019-01-21T09:19:56.250Z,102163.55
2019-01-21T09:23:11.662Z,102165.85
2019-01-21T09:26:27.177Z,102161.84
2019-01-21T09:29:20.592Z,102167.20
2019-01-21T09:32:39.033Z,102159.30
2019-01-21T09:35:50.873Z,102161.45
2019-01-21T09:38:48.322Z,102154.98
2019-01-21T09:41:44.449Z,102149.81
2019-01-21T09:44:26.426Z,102151.13
2019-01-21T09:46:54.216Z,102138.08
2019-01-21T09:49:23.888Z,102143.77
2019-01-21T09:52:14.274Z,102145.53
2019-01-21T09:54:46.163Z,102144.64
2019-01-21T09:57:28.787Z,102140.28
2019-01-21T10:00:00.946Z,102136.36
2019-01-21T10:02:52.716Z,102128.46
2019-01-21T10:05:24.297Z,102128.03
2019-01-21T10:08:25.825Z,102130.29
2019-01-21T10:11:30.895Z,102125.47
2019-01-21T10:14:29.506Z,102118.89
2019-01-21T10:17:40.150Z,102119.35
2019-01-21T10:20:33.586Z,102119.34
2019-01-21T10:23:55.644Z,102108.39
2019-01-21T10:26:55.221Z,102114.52
2019-01-21T10:30:06.875Z,102109.73
2019-01-21T10:33:15.116Z,102111.92
2019-01-21T10:36:27.121Z,102120.69
2019-01-21T10:39:26.760Z,102118.49
2019-01-21T10:42:39.844Z,102119.80
2019-01-21T10:45:52.397Z,102110.61
2019-01-21T10:49:00.338Z,102101.41
2019-01-21T10:52:10.836Z,102100.98
2019-01-21T10:54:54.234Z,102097.48
2019-01-21T10:58:08.281Z,102094.85
2019-01-21T11:01:32.610Z,102090.46
2019-01-21T11:04:38.151Z,102085.21
2019-01-21T11:08:03.450Z,102077.34
2019-01-21T11:11:20.207Z,102067.33
2019-01-21T11:14:27.579Z,102058.98
2019-01-21T11:17:40.711Z,102056.80
2019-01-21T11:20:52.239Z,102051.11
2019-01-21T11:24:01.718Z,102049.36
2019-01-21T11:27:10.334Z,102041.95
2019-01-21T11:29:52.749Z,102030.93
2019-01-21T11:33:18.595Z,102033.56
2019-01-21T11:36:31.989Z,102028.30
2019-01-21T11:39:16.467Z,102020.33
2019-01-21T11:42:34.383Z,102015.08
2019-01-21T11:45:48.378Z,102019.00
2019-01-21T11:49:01.799Z,102020.83
2019-01-21T11:52:22.180Z,102016.00
2019-01-21T11:55:15.690Z,102012.92
2019-01-21T11:58:37.933Z,102002.40
2019-01-21T12:01:30.602Z,101995.30
2019-01-21T12:04:37.750Z,101997.88
2019-01-21T12:07:24.407Z,101994.89
2019-01-21T12:10:22.227Z,101988.66
2019-01-21T12:13:23.038Z,101997.38
2019-01-21T12:16:33.355Z,101988.11
2019-01-21T12:19:29.249Z,101984.26
2019-01-21T12:22:54.599Z,101983.05
2019-01-21T12:25:35.110Z,101982.14
2019-01-21T12:28:44.900Z,101978.05
2019-01-21T12:32:07.357Z,101972.78
2019-01-21T12:35:11.536Z,101972.19
2019-01-21T12:38:24.781Z,101970.06
2019-01-21T12:41:21.756Z,101970.72
2019-01-21T12:44:27.750Z,101970.68
2019-01-21T12:47:20.477Z,101967.15
2019-01-21T12:50:14.790Z,101963.45
2019-01-21T12:53:03.484Z,101966.93
2019-01-21T12:56:04.960Z,101959.31
2019-01-21T12:59:08.765Z,101957.42
2019-01-21T13:01:55.497Z,101954.84
2019-01-21T13:04:41.797Z,101960.56
2019-01-21T13:07:29.711Z,101959.55
2019-01-21T13:10:29.960Z,101956.55
2019-01-21T13:13:33.706Z,101953.36
2019-01-21T13:16:24.541Z,101944.34
2019-01-21T13:19:30.134Z,101943.45
2019-01-21T13:22:26.773Z,101942.14
2019-01-21T13:25:43.013Z,101938.05
2019-01-21T13:28:36.643Z,101936.67
2019-01-21T13:31:43.144Z,101939.67
2019-01-21T13:34:53.167Z,101931.84
2019-01-21T13:37:40.413Z,101934.91
2019-01-21T13:40:35.729Z,101933.23
2019-01-21T13:43:22.911Z,101928.80
2019-01-21T13:46:42.500Z,101926.22
2019-01-21T13:49:42.655Z,101917.15
2019-01-21T13:52:43.950Z,101908.42
2019-01-21T13:55:42.362Z,101911.95
2019-01-21T13:58:52.546Z,101900.55
2019-01-21T14:01:38.567Z,101896.21
2019-01-21T14:04:55.141Z,101896.08
2019-01-21T14:07:52.128Z,101897.50
2019-01-21T14:11:26.651Z,101898.80
2019-01-21T14:14:18.005Z,101895.23
2019-01-21T14:17:01.013Z,101889.97
2019-01-21T14:19:54.743Z,101883.47
2019-01-21T14:22:46.119Z,101876.52
2019-01-21T14:25:42.367Z,101880.09
2019-01-21T14:29:07.679Z,101876.14
2019-01-21T14:32:11.229Z,101875.84
2019-01-21T14:35:22.311Z,101879.28
2019-01-21T14:38:48.430Z,101872.81
2019-01-21T14:41:56.265Z,101870.31
2019-01-21T14:45:05.994Z,101873.75
2019-01-21T14:48:31.513Z,101874.70
2019-01-21T14:51:46.041Z,101872.61
2019-01-21T14:54:30.688Z,101876.88
2019-01-21T14:57:39.270Z,101871.97
2019-01-21T15:00:49.622Z,101869.24
2019-01-21T15:04:00.327Z,101872.73
2019-01-21T15:07:17.995Z,101863.48
2019-01-21T15:10:27.853Z,101860.92
2019-01-21T15:13:41.372Z,101862.64
2019-01-21T15:16:42.541Z,101858.83
2019-01-21T15:19:54.411Z,101858.02
2019-01-21T15:22:58.964Z,101858.83
2019-01-21T15:25:57.083Z,101851.77
2019-01-21T15:29:04.506Z,101850.48
2019-01-21T15:31:53.654Z,101845.72
2019-01-21T15:34:31.774Z,101850.11
2019-01-21T15:37:25.081Z,101837.77
2019-01-21T15:40:34.671Z,101841.72
2019-01-21T15:43:31.202Z,101840.37
2019-01-21T15:46:18.482Z,101838.16
2019-01-21T15:49:47.058Z,101837.05
2019-01-21T15:52:34.492Z,101843.67
2019-01-21T15:55:29.974Z,101836.13
2019-01-21T15:58:33.521Z,101838.80
2019-01-21T16:01:38.693Z,101847.64
2019-01-21T16:04:46.950Z,101840.59
2019-01-21T16:07:44.921Z,101847.95
2019-01-21T16:10:56.772Z,101845.72
2019-01-21T16:13:42.959Z,101839.05
2019-01-21T16:16:48.185Z,101834.28
2019-01-21T16:19:40.598Z,101839.62
2019-01-21T16:22:35.918Z,101834.89
2019-01-21T16:25:55.545Z,101831.92
2019-01-21T16:29:37.273Z,101833.65
2019-01-21T16:32:14.153Z,101842.92
2019-01-21T16:34:58.815Z,101829.78
2019-01-21T16:38:14.701Z,101831.98
2019-01-21T16:41:19.847Z,101831.06
2019-01-21T16:43:52.871Z,101831.71
2019-01-21T16:46:22.763Z,101833.80
2019-01-21T16:48:52.390Z,101825.93
2019-01-21T16:51:21.880Z,101827.64
2019-01-21T16:53:51.263Z,101836.36
2019-01-21T16:56:21.201Z,101835.95
2019-01-21T16:58:50.685Z,101827.09
2019-01-21T17:01:20.071Z,101830.94
2019-01-21T17:03:49.605Z,101828.33
2019-01-21T17:06:19.109Z,101825.22
2019-01-21T17:08:48.997Z,101822.05
2019-01-21T17:11:18.625Z,101821.16
2019-01-21T17:13:48.374Z,101822.80
2019-01-21T17:16:19.969Z,101822.80
2019-01-21T17:18:49.168Z,101819.63
2019-01-21T17:21:18.578Z,101816.96
2019-01-21T17:23:47.986Z,101819.97
2019-01-21T17:26:17.647Z,101817.74
2019-01-21T17:28:47.192Z,101812.59
2019-01-21T17:31:16.717Z,101815.17
2019-01-21T17:33:46.440Z,101808.00
2019-01-21T17:36:15.944Z,101802.23
2019-01-21T17:38:45.338Z,101809.41
2019-01-21T17:41:15.558Z,101804.44
2019-01-21T17:43:44.969Z,101800.76
2019-01-21T17:46:14.401Z,101802.37
2019-01-21T17:48:43.958Z,101812.83
2019-01-21T17:51:13.507Z,101804.32
2019-01-21T17:53:43.168Z,101811.69
2019-01-21T17:56:12.824Z,101811.33
2019-01-21T17:58:42.321Z,101808.77
2019-01-21T18:01:11.814Z,101810.64
2019-01-21T18:03:41.716Z,101810.73
2019-01-21T18:06:11.401Z,101797.25
2019-01-21T18:08:40.927Z,101801.67
2019-01-21T18:11:10.886Z,101801.39
2019-01-21T18:13:40.356Z,101793.98
2019-01-21T18:16:11.827Z,101791.08
2019-01-21T18:18:43.302Z,101789.25
2019-01-21T18:21:12.891Z,101784.39
2019-01-21T18:23:43.366Z,101787.83
2019-01-21T18:26:12.955Z,101785.58
2019-01-21T18:28:42.394Z,101779.80
2019-01-21T18:31:11.810Z,101788.40
2019-01-21T18:33:41.308Z,101777.40
2019-01-21T18:36:13.475Z,101780.08
2019-01-21T18:38:44.680Z,101772.67
2019-01-21T18:41:15.456Z,101773.63
2019-01-21T18:43:46.854Z,101775.80
2019-01-21T18:46:16.286Z,101777.12
2019-01-21T18:48:47.009Z,101776.06
2019-01-21T18:51:17.556Z,101776.55
2019-01-21T18:53:48.196Z,101773.86
2019-01-21T18:56:17.643Z,101772.48
2019-01-21T18:58:48.129Z,101776.52
2019-01-21T19:01:17.706Z,101772.91
2019-01-21T19:03:47.240Z,101774.25
2019-01-21T19:06:18.554Z,101775.59
2019-01-21T19:08:49.577Z,101766.17
2019-01-21T19:11:20.499Z,101763.73
2019-01-21T19:13:50.846Z,101768.14
2019-01-21T19:16:20.512Z,101767.22
2019-01-21T19:18:49.933Z,101770.53
2019-01-21T19:21:19.323Z,101766.14
2019-01-21T19:23:50.666Z,101759.19
2019-01-21T19:26:27.438Z,101761.09
2019-01-21T19:28:58.120Z,101757.73
2019-01-21T19:31:29.117Z,101756.77
2019-01-21T19:33:58.614Z,101757.28
2019-01-21T19:36:28.255Z,101754.06
2019-01-21T19:38:57.772Z,101755.77
2019-01-21T19:41:27.174Z,101746.16
2019-01-21T19:43:57.183Z,101747.50
2019-01-21T19:46:26.942Z,101744.43
2019-01-21T19:48:56.861Z,101745.64
2019-01-21T19:51:26.746Z,101738.98
2019-01-21T19:53:57.169Z,101736.41
2019-01-21T19:56:26.773Z,101735.61
2019-01-21T19:58:56.707Z,101736.48
2019-01-21T20:01:26.697Z,101729.53
2019-01-21T20:03:57.011Z,101733.20
2019-01-21T20:06:26.716Z,101737.91
2019-01-21T20:08:57.095Z,101731.90
2019-01-21T20:11:26.664Z,101728.48
2019-01-21T20:13:56.714Z,101736.33
2019-01-21T20:16:27.045Z,101728.17
2019-01-21T20:18:56.710Z,101735.76
2019-01-21T20:21:26.686Z,101727.60
2019-01-21T20:23:56.755Z,101724.92
2019-01-21T20:26:26.619Z,101719.71
2019-01-21T20:28:57.790Z,101722.72
2019-01-21T20:31:29.245Z,101721.33
2019-01-21T20:33:58.714Z,101717.41
2019-01-21T20:36:29.651Z,101713.42
2019-01-21T20:38:59.192Z,101708.66
2019-01-21T20:41:30.025Z,101712.13
2019-01-21T20:44:00.882Z,101716.03
2019-01-21T20:46:31.473Z,101714.75
2019-01-21T20:49:00.962Z,101716.97
2019-01-21T20:51:30.361Z,101712.98
2019-01-21T20:53:59.968Z,101714.27
2019-01-21T20:56:32.745Z,101711.27
2019-01-21T20:59:02.143Z,101706.84
2019-01-21T21:01:32.262Z,101701.67
2019-01-21T21:04:01.857Z,101706.14
2019-01-21T21:06:32.749Z,101705.70
2019-01-21T21:09:02.531Z,101713.16
2019-01-21T21:11:33.872Z,101714.00
2019-01-21T21:14:03.346Z,101716.61
2019-01-21T21:16:34.509Z,101719.36
2019-01-21T21:19:04.629Z,101720.73
2019-01-21T21:21:35.947Z,101724.31
2019-01-21T21:24:05.826Z,101724.70
2019-01-21T21:26:37.040Z,101725.56
2019-01-21T21:29:06.523Z,101721.59
2019-01-21T21:31:36.181Z,101722.41
2019-01-21T21:34:08.188Z,101721.63
2019-01-21T21:36:39.106Z,101731.81
2019-01-21T21:39:10.476Z,101725.16
2019-01-21T21:41:40.011Z,101719.44
2019-01-21T21:44:09.726Z,101717.29
2019-01-21T21:46:42.334Z,101724.75
2019-01-21T21:49:11.997Z,101716.74
2019-01-21T21:51:46.509Z,101720.30
2019-01-21T21:54:16.823Z,101716.91
2019-01-21T21:56:47.581Z,101718.22
2019-01-21T21:59:17.268Z,101717.20
2019-01-21T22:01:48.935Z,101715.04
2019-01-21T22:04:18.519Z,101708.08
2019-01-21T22:06:48.123Z,101713.22
2019-01-21T22:09:19.755Z,101692.27
2019-01-21T22:11:49.432Z,101703.64
2019-01-21T22:14:18.936Z,101702.72
2019-01-21T22:16:48.623Z,101697.87
2019-01-21T22:19:18.171Z,101684.68
2019-01-21T22:21:47.850Z,101679.44
2019-01-21T22:24:18.346Z,101679.03
2019-01-21T22:26:47.879Z,101681.23
2019-01-21T22:29:17.231Z,101676.33
2019-01-21T22:31:46.962Z,101672.39
2019-01-21T22:34:18.248Z,101668.01
2019-01-21T22:36:47.738Z,101668.97
2019-01-21T22:39:17.331Z,101674.54
2019-01-21T22:41:46.847Z,101673.13
2019-01-21T22:44:16.458Z,101674.52
2019-01-21T22:46:46.133Z,101671.84
2019-01-21T22:49:15.610Z,101668.23
2019-01-21T22:51:45.135Z,101673.52
2019-01-21T22:54:14.993Z,101671.23
2019-01-21T22:56:44.446Z,101669.45
2019-01-21T22:59:13.850Z,101662.61
2019-01-21T23:01:43.538Z,101658.25
2019-01-21T23:04:13.373Z,101663.56
2019-01-21T23:06:42.939Z,101663.83
2019-01-21T23:09:12.665Z,101657.72
2019-01-21T23:11:42.110Z,101661.08
2019-01-21T23:14:11.961Z,101656.13
2019-01-21T23:16:41.495Z,101649.39
2019-01-21T23:19:11.136Z,101643.74
2019-01-21T23:21:40.539Z,101647.12
2019-01-21T23:24:10.446Z,101647.09
2019-01-21T23:26:40.314Z,101643.24
2019-01-21T23:29:10.213Z,101637.16
2019-01-21T23:31:39.934Z,101640.13
2019-01-21T23:34:09.342Z,101629.58
2019-01-21T23:36:38.764Z,101625.58
2019-01-21T23:39:09.440Z,101625.04
2019-01-21T23:41:40.506Z,101622.44
2019-01-21T23:44:12.673Z,101618.51
2019-01-21T23:46:42.152Z,101615.25
2019-01-21T23:49:12.219Z,101612.75
2019-01-21T23:51:41.619Z,101610.16
2019-01-21T23:54:11.387Z,101613.91
2019-01-21T23:56:40.783Z,101612.87
2019-01-21T23:59:10.194Z,101609.27
